Time;durP1;ratioP1;P1;durP2;ratioP2;P2;SDS_P1;SDS_P2;PMS_P1;PMS_P2;Temp;Humidity;BMP_temperature;BMP_pressure;BME280_temperature;BME280_humidity;BME280_pressure;Samples;Min_cycle;Max_cycle;Signal;HPM_P1;HPM_P2
2022/07/31 00:00:15;;;;;;;6.78;4.18;;;;;;;19.17;58.39;100954.72;5095156;28;20047;-80
2022/07/31 00:02:43;;;;;;;5.65;3.40;;;;;;;19.13;58.90;100940.81;5076238;28;20033;-80
2022/07/31 00:05:11;;;;;;;7.72;3.65;;;;;;;19.10;58.74;100950.94;5064194;28;20060;-81
2022/07/31 00:07:38;;;;;;;4.88;3.40;;;;;;;19.08;59.01;100953.72;5042403;28;20092;-83
2022/07/31 00:10:06;;;;;;;4.93;3.17;;;;;;;19.05;59.54;100954.03;5066574;28;20220;-81
2022/07/31 00:12:36;;;;;;;5.80;3.00;;;;;;;19.00;59.62;100950.91;5055158;28;20025;-81
2022/07/31 00:15:05;;;;;;;6.43;3.35;;;;;;;18.93;60.53;100950.63;5057998;28;20101;-82
2022/07/31 00:17:33;;;;;;;7.93;3.25;;;;;;;18.89;60.51;100949.19;5066993;28;20051;-81
2022/07/31 00:20:00;;;;;;;7.88;3.40;;;;;;;18.84;60.21;100953.25;5043827;28;20079;-81
2022/07/31 00:22:28;;;;;;;6.25;3.42;;;;;;;18.80;61.32;100947.34;5061751;28;20519;-83
2022/07/31 00:24:55;;;;;;;5.15;3.38;;;;;;;18.78;61.51;100948.44;5042160;28;20053;-82
2022/07/31 00:27:22;;;;;;;5.85;3.25;;;;;;;18.77;61.61;100952.09;5046964;28;20045;-83
2022/07/31 00:29:50;;;;;;;10.88;4.20;;;;;;;18.74;61.53;100945.22;5061096;28;20144;-84
2022/07/31 00:32:17;;;;;;;6.53;3.35;;;;;;;18.73;61.81;100935.50;5077050;28;20047;-81
2022/07/31 00:34:44;;;;;;;5.28;3.60;;;;;;;18.72;61.78;100948.00;5030370;28;20049;-81
2022/07/31 00:37:11;;;;;;;5.60;3.50;;;;;;;18.69;61.86;100944.78;5048495;28;20041;-85
2022/07/31 00:39:39;;;;;;;4.93;3.55;;;;;;;18.64;61.70;100939.84;5072568;28;20070;-83
2022/07/31 00:42:16;;;;;;;5.63;3.30;;;;;;;18.61;62.47;100940.09;5047980;28;20140;-82
2022/07/31 00:44:43;;;;;;;7.65;4.03;;;;;;;18.57;62.20;100930.66;5050681;28;20087;-84
2022/07/31 00:47:15;;;;;;;9.70;3.72;;;;;;;18.53;62.56;100928.41;5064009;28;20377;-81
2022/07/31 00:49:43;;;;;;;8.77;3.53;;;;;;;18.50;63.18;100926.00;5048188;28;20078;-82
2022/07/31 00:52:10;;;;;;;10.07;3.50;;;;;;;18.45;63.55;100929.91;5043599;28;20041;-83
2022/07/31 00:54:38;;;;;;;6.05;3.58;;;;;;;18.42;63.05;100929.34;5054159;28;20037;-82
2022/07/31 00:57:05;;;;;;;4.63;3.70;;;;;;;18.39;63.45;100918.94;5040116;28;20120;-82
2022/07/31 00:59:33;;;;;;;8.10;3.80;;;;;;;18.38;63.75;100923.44;5044763;28;20040;-83
2022/07/31 01:02:00;;;;;;;5.38;4.05;;;;;;;18.38;63.58;100925.28;5060048;28;20037;-83
2022/07/31 01:04:27;;;;;;;5.20;3.40;;;;;;;18.36;64.05;100919.22;5065877;28;20125;-82
2022/07/31 01:06:59;;;;;;;4.68;3.70;;;;;;;18.33;64.09;100922.16;5060956;28;20140;-83
2022/07/31 01:09:27;;;;;;;8.35;3.88;;;;;;;18.31;64.27;100918.78;5061219;28;20044;-83
2022/07/31 01:12:18;;;;;;;12.80;3.85;;;;;;;18.28;64.69;100919.91;5064702;28;20462;-83
2022/07/31 01:14:48;;;;;;;7.32;4.00;;;;;;;18.28;65.10;100925.22;5067743;28;20045;-81
2022/07/31 01:17:16;;;;;;;8.23;4.50;;;;;;;18.26;65.07;100921.84;5073838;28;20133;-86
2022/07/31 01:19:46;;;;;;;7.85;3.88;;;;;;;18.23;65.56;100925.59;5048648;28;20049;-84
2022/07/31 01:22:44;;;;;;;5.75;4.38;;;;;;;18.20;65.87;100923.22;5056755;28;20064;-83
2022/07/31 01:25:50;;;;;;;7.35;4.35;;;;;;;18.16;65.98;100920.94;5066338;28;20105;-83
2022/07/31 01:28:20;;;;;;;8.70;4.17;;;;;;;18.13;66.61;100921.19;5066315;28;20059;-84
2022/07/31 01:30:50;;;;;;;6.18;4.22;;;;;;;18.09;66.54;100915.28;5045779;28;20075;-84
2022/07/31 01:33:45;;;;;;;8.18;4.00;;;;;;;18.05;67.31;100921.00;5077554;28;20538;-83
2022/07/31 01:36:16;;;;;;;8.48;4.18;;;;;;;18.02;67.37;100918.63;5046314;28;20097;-83
2022/07/31 01:38:45;;;;;;;7.72;3.70;;;;;;;17.96;67.52;100918.16;5042360;28;20051;-85
2022/07/31 01:41:15;;;;;;;8.43;4.47;;;;;;;17.96;67.41;100912.81;5046026;28;20056;-82
2022/07/31 01:43:46;;;;;;;6.07;4.60;;;;;;;17.95;67.85;100924.47;5067326;28;20049;-83
2022/07/31 01:46:15;;;;;;;8.18;4.40;;;;;;;17.94;67.83;100921.94;5066896;28;20055;-84
2022/07/31 01:48:43;;;;;;;8.82;4.30;;;;;;;17.90;68.02;100918.69;5046596;28;20493;-83
2022/07/31 01:51:11;;;;;;;9.40;4.30;;;;;;;17.89;68.38;100918.81;5047907;28;20064;-83
2022/07/31 01:53:39;;;;;;;8.80;4.38;;;;;;;17.85;68.49;100917.38;5066441;28;20055;-83
2022/07/31 01:56:07;;;;;;;10.55;4.57;;;;;;;17.83;68.93;100916.66;5050381;28;20079;-84
2022/07/31 01:58:37;;;;;;;5.75;4.03;;;;;;;17.79;68.89;100910.78;5044837;28;20125;-85
2022/07/31 02:01:07;;;;;;;7.72;5.30;;;;;;;17.77;69.21;100917.19;5064136;28;20052;-83
2022/07/31 02:03:37;;;;;;;6.90;4.15;;;;;;;17.72;69.02;100913.06;5057248;28;20049;-80
2022/07/31 02:06:16;;;;;;;6.47;4.40;;;;;;;17.70;69.93;100917.69;5074462;28;20266;-82
2022/07/31 02:08:45;;;;;;;8.57;4.88;;;;;;;17.68;69.88;100924.09;5021968;28;20116;-83
2022/07/31 02:11:14;;;;;;;9.15;4.13;;;;;;;17.64;69.37;100928.84;5040637;28;20458;-80
2022/07/31 02:13:42;;;;;;;7.50;4.35;;;;;;;17.61;69.91;100925.59;5045802;28;20116;-82
2022/07/31 02:16:10;;;;;;;9.65;4.60;;;;;;;17.58;69.94;100918.72;5066318;28;20045;-82
2022/07/31 02:18:38;;;;;;;10.00;4.68;;;;;;;17.58;69.56;100917.88;5076145;28;20053;-81
2022/07/31 02:21:05;;;;;;;9.18;4.93;;;;;;;17.56;69.75;100915.34;5070052;28;20439;-83
2022/07/31 02:23:33;;;;;;;6.40;4.25;;;;;;;17.56;69.94;100907.34;5068045;28;20040;-83
2022/07/31 02:26:02;;;;;;;8.13;4.50;;;;;;;17.57;70.41;100911.69;5061139;28;20554;-83
2022/07/31 02:28:31;;;;;;;7.22;4.80;;;;;;;17.51;70.42;100914.84;5050211;28;20044;-82
2022/07/31 02:31:00;;;;;;;7.28;4.65;;;;;;;17.46;70.37;100911.75;5076613;28;20053;-83
2022/07/31 02:33:27;;;;;;;7.80;4.43;;;;;;;17.44;70.47;100916.34;5061260;28;20482;-83
2022/07/31 02:35:55;;;;;;;8.05;4.50;;;;;;;17.42;70.19;100918.28;5064092;28;20116;-82
2022/07/31 02:38:25;;;;;;;7.65;4.20;;;;;;;17.40;71.30;100917.59;5071631;28;20056;-84
2022/07/31 02:40:56;;;;;;;7.50;4.13;;;;;;;17.36;71.03;100910.81;5062015;28;20067;-83
2022/07/31 02:43:25;;;;;;;8.00;4.50;;;;;;;17.35;71.20;100917.13;5069429;28;20025;-82
2022/07/31 02:45:54;;;;;;;8.68;4.55;;;;;;;17.32;71.96;100915.53;5064038;28;20047;-83
2022/07/31 02:48:22;;;;;;;9.73;4.53;;;;;;;17.29;71.56;100918.47;5041808;28;20053;-83
2022/07/31 02:50:50;;;;;;;9.50;4.63;;;;;;;17.26;71.66;100918.72;5076011;28;20044;-83
2022/07/31 02:53:17;;;;;;;11.10;4.55;;;;;;;17.24;71.96;100912.66;5063816;28;20064;-83
2022/07/31 02:55:45;;;;;;;8.93;5.10;;;;;;;17.22;71.95;100917.28;5052072;28;20405;-83
2022/07/31 02:58:13;;;;;;;6.85;4.70;;;;;;;17.20;72.13;100920.09;5064761;28;20045;-81
2022/07/31 03:00:40;;;;;;;10.82;4.50;;;;;;;17.17;72.71;100920.31;5060675;28;20048;-84
2022/07/31 03:03:10;;;;;;;9.75;4.78;;;;;;;17.15;71.99;100911.59;5054805;28;20132;-83
2022/07/31 03:05:37;;;;;;;10.00;4.82;;;;;;;17.15;72.46;100911.59;5065646;28;20459;-85
2022/07/31 03:08:05;;;;;;;6.85;5.03;;;;;;;17.16;71.71;100909.81;5062972;28;20057;-83
2022/07/31 03:10:32;;;;;;;9.90;5.35;;;;;;;17.18;71.34;100898.06;5068106;28;20080;-84
2022/07/31 03:12:59;;;;;;;10.32;5.18;;;;;;;17.20;71.32;100895.25;5068256;28;20042;-82
2022/07/31 03:15:28;;;;;;;9.38;5.05;;;;;;;17.20;71.85;100892.59;5031264;28;20064;-83
2022/07/31 03:17:55;;;;;;;9.70;6.00;;;;;;;17.20;72.18;100898.78;5049576;28;20132;-82
2022/07/31 03:20:25;;;;;;;10.95;5.65;;;;;;;17.19;72.33;100894.41;5083444;28;20056;-81
2022/07/31 03:22:52;;;;;;;10.40;5.45;;;;;;;17.18;71.79;100894.56;5041095;28;20063;-84
2022/07/31 03:25:19;;;;;;;11.00;5.38;;;;;;;17.17;71.86;100884.91;5056649;28;20055;-82
2022/07/31 03:27:48;;;;;;;10.82;5.85;;;;;;;17.15;72.11;100885.00;5061909;28;20051;-82
2022/07/31 03:30:24;;;;;;;9.50;6.55;;;;;;;17.14;72.71;100880.66;5050912;28;20038;-84
2022/07/31 03:32:52;;;;;;;9.82;6.40;;;;;;;17.13;73.10;100884.28;5031561;28;20207;-83
2022/07/31 03:35:20;;;;;;;6.95;4.53;;;;;;;17.12;72.42;100881.78;5029587;28;20048;-84
2022/07/31 03:37:48;;;;;;;9.63;5.50;;;;;;;17.11;72.82;100882.72;5063865;28;20056;-82
2022/07/31 03:40:15;;;;;;;8.25;5.13;;;;;;;17.09;73.17;100880.19;5055781;28;20049;-84
2022/07/31 03:42:46;;;;;;;9.30;5.38;;;;;;;17.10;72.98;100889.03;5070556;28;20410;-84
2022/07/31 03:45:14;;;;;;;8.13;5.45;;;;;;;17.10;73.52;100887.19;5063942;28;20080;-81
2022/07/31 03:47:42;;;;;;;8.00;5.10;;;;;;;17.09;73.53;100882.00;5046037;28;20151;-86
2022/07/31 03:50:10;;;;;;;7.68;5.20;;;;;;;17.09;72.92;100876.69;5066920;28;21003;-84
2022/07/31 03:52:37;;;;;;;12.82;5.60;;;;;;;17.09;73.37;100880.19;5081462;28;20128;-85
2022/07/31 03:55:06;;;;;;;10.18;5.70;;;;;;;17.10;73.42;100881.03;5053228;28;20177;-84
2022/07/31 03:57:35;;;;;;;10.48;5.97;;;;;;;17.12;73.15;100885.28;5062956;28;20076;-85
2022/07/31 04:00:04;;;;;;;9.93;5.28;;;;;;;17.15;73.46;100882.34;5043412;28;20051;-83
2022/07/31 04:02:33;;;;;;;10.45;5.97;;;;;;;17.19;73.47;100896.25;5069922;28;20044;-85
2022/07/31 04:05:00;;;;;;;10.75;5.55;;;;;;;17.18;73.21;100894.56;5067409;28;20067;-84
2022/07/31 04:07:31;;;;;;;9.05;5.40;;;;;;;17.20;73.41;100896.13;5047847;28;20049;-85
2022/07/31 04:09:59;;;;;;;8.68;4.95;;;;;;;17.24;74.06;100895.84;5063097;28;20129;-82
2022/07/31 04:12:26;;;;;;;12.18;5.72;;;;;;;17.26;73.49;100894.78;5040835;28;20028;-80
2022/07/31 04:14:53;;;;;;;7.53;5.47;;;;;;;17.30;73.16;100898.88;5074080;28;20062;-82
2022/07/31 04:17:20;;;;;;;10.15;5.20;;;;;;;17.36;72.76;100893.03;5067086;28;20061;-80
2022/07/31 04:19:48;;;;;;;10.18;5.88;;;;;;;17.39;72.57;100890.13;5058809;28;20037;-83
2022/07/31 04:22:15;;;;;;;7.95;5.28;;;;;;;17.41;72.77;100887.31;5063645;28;20048;-83
2022/07/31 04:24:43;;;;;;;12.40;5.95;;;;;;;17.46;72.03;100896.59;5069503;28;20037;-84
2022/07/31 04:27:10;;;;;;;7.05;5.07;;;;;;;17.53;71.97;100888.13;5076893;28;20045;-80
2022/07/31 04:29:39;;;;;;;11.90;5.13;;;;;;;17.57;71.36;100897.56;5080844;28;20055;-80
2022/07/31 04:32:06;;;;;;;10.20;4.95;;;;;;;17.61;71.34;100894.50;5061369;28;20068;-80
2022/07/31 04:34:33;;;;;;;6.57;5.10;;;;;;;17.67;70.80;100903.78;5074897;28;20056;-81
2022/07/31 04:37:01;;;;;;;10.52;4.88;;;;;;;17.72;70.32;100898.91;5079642;28;20104;-81
2022/07/31 04:39:28;;;;;;;10.50;4.65;;;;;;;17.78;69.61;100900.22;5067071;28;20109;-83
2022/07/31 04:41:55;;;;;;;7.05;4.57;;;;;;;17.84;69.50;100903.25;5067567;28;20056;-82
2022/07/31 04:44:22;;;;;;;8.77;5.25;;;;;;;17.91;69.60;100899.06;5062626;28;20037;-85
2022/07/31 04:46:50;;;;;;;8.43;4.40;;;;;;;17.97;69.09;100905.69;5070917;28;20584;-84
2022/07/31 04:49:17;;;;;;;8.57;4.88;;;;;;;18.00;69.03;100908.09;5065094;28;20063;-83
2022/07/31 04:51:44;;;;;;;8.30;4.35;;;;;;;18.06;68.94;100912.06;5063674;28;20417;-84
2022/07/31 04:54:11;;;;;;;12.57;4.93;;;;;;;18.10;68.66;100911.66;5064343;28;20033;-83
2022/07/31 04:56:41;;;;;;;6.85;4.38;;;;;;;18.15;68.43;100905.94;5045392;28;20051;-83
2022/07/31 04:59:11;;;;;;;8.13;4.32;;;;;;;18.22;67.85;100907.91;5062434;28;20135;-85
2022/07/31 05:01:39;;;;;;;9.65;4.53;;;;;;;18.31;67.64;100905.44;5052105;28;20435;-83
2022/07/31 05:04:07;;;;;;;7.95;4.18;;;;;;;18.38;67.10;100906.59;5070889;28;20120;-82
2022/07/31 05:06:42;;;;;;;8.13;4.70;;;;;;;18.41;67.06;100901.84;5051910;28;20125;-82
2022/07/31 05:09:12;;;;;;;8.52;4.63;;;;;;;18.49;66.83;100903.84;5082384;28;20079;-81
2022/07/31 05:11:47;;;;;;;8.00;4.65;;;;;;;18.55;66.67;100905.97;5080878;28;20035;-82
2022/07/31 05:14:16;;;;;;;7.07;4.82;;;;;;;18.61;66.52;100913.44;5040522;28;20037;-82
2022/07/31 05:16:43;;;;;;;7.63;4.07;;;;;;;18.67;65.93;100906.69;5057482;28;20053;-81
2022/07/31 05:19:11;;;;;;;8.73;4.72;;;;;;;18.75;65.52;100916.72;5069660;28;20037;-82
2022/07/31 05:21:42;;;;;;;7.25;4.32;;;;;;;18.83;64.93;100907.06;5068258;28;20096;-82
2022/07/31 05:24:29;;;;;;;8.23;3.80;;;;;;;18.90;64.52;100924.19;5062750;28;20052;-83
2022/07/31 05:27:01;;;;;;;5.93;4.30;;;;;;;18.95;64.12;100910.44;5044075;28;20493;-84
2022/07/31 05:29:29;;;;;;;6.22;3.95;;;;;;;18.98;63.52;100911.03;5068086;28;20033;-84
2022/07/31 05:31:56;;;;;;;7.78;3.78;;;;;;;19.07;63.25;100920.03;5065230;28;20068;-84
2022/07/31 05:34:30;;;;;;;5.43;3.67;;;;;;;19.18;63.07;100917.25;5068215;28;20053;-84
2022/07/31 05:36:59;;;;;;;4.95;3.75;;;;;;;19.24;62.96;100907.84;5056072;28;20139;-84
2022/07/31 05:39:28;;;;;;;8.40;4.50;;;;;;;19.29;62.39;100913.59;5063677;28;20059;-83
2022/07/31 05:41:55;;;;;;;10.20;4.25;;;;;;;19.36;62.23;100911.19;5074271;28;20134;-83
2022/07/31 05:44:23;;;;;;;7.15;4.38;;;;;;;19.43;62.22;100907.00;5027825;28;20048;-83
2022/07/31 05:46:51;;;;;;;9.05;4.15;;;;;;;19.51;61.51;100911.63;5063310;28;20858;-85
2022/07/31 05:49:18;;;;;;;7.50;4.28;;;;;;;19.59;60.93;100909.94;5081401;28;20470;-84
2022/07/31 05:51:52;;;;;;;5.68;3.75;;;;;;;19.65;60.14;100911.22;5066785;28;20588;-84
2022/07/31 05:54:21;;;;;;;5.30;3.67;;;;;;;19.71;60.18;100913.31;5052498;28;20060;-84
2022/07/31 05:56:48;;;;;;;4.93;3.38;;;;;;;19.79;60.02;100913.47;5032149;28;20037;-83
2022/07/31 05:59:16;;;;;;;8.10;3.88;;;;;;;19.89;59.76;100924.13;5087280;28;20120;-82
2022/07/31 06:01:43;;;;;;;9.57;3.70;;;;;;;19.95;60.12;100927.06;5049174;28;20052;-83
2022/07/31 06:04:10;;;;;;;10.88;4.70;;;;;;;19.82;61.09;100929.22;5063110;28;20109;-84
2022/07/31 06:06:37;;;;;;;7.93;5.20;;;;;;;19.74;61.92;100931.75;5046582;28;20059;-84
2022/07/31 06:09:05;;;;;;;7.55;4.78;;;;;;;19.78;62.11;100930.47;5066271;28;20403;-81
2022/07/31 06:11:32;;;;;;;10.00;5.00;;;;;;;19.86;62.09;100932.44;5059292;28;20063;-83
2022/07/31 06:14:00;;;;;;;6.78;4.85;;;;;;;19.91;61.87;100932.84;5064372;28;20408;-84
2022/07/31 06:16:27;;;;;;;5.93;4.57;;;;;;;20.08;61.69;100926.75;5064401;28;20079;-83
2022/07/31 06:18:54;;;;;;;9.65;5.00;;;;;;;20.14;61.88;100931.53;5065672;28;20509;-84
2022/07/31 06:21:22;;;;;;;11.40;5.25;;;;;;;20.27;61.91;100925.88;5070788;28;20039;-81
2022/07/31 06:23:54;;;;;;;10.68;5.78;;;;;;;20.40;61.62;100925.56;5077377;28;20079;-79
2022/07/31 06:26:22;;;;;;;8.95;5.15;;;;;;;20.47;61.27;100934.66;5067140;28;20122;-82
2022/07/31 06:28:53;;;;;;;9.60;5.20;;;;;;;20.58;61.10;100929.16;5083099;28;20060;-80
2022/07/31 06:31:21;;;;;;;7.32;4.90;;;;;;;20.71;60.61;100928.78;5073832;28;20093;-81
2022/07/31 06:33:49;;;;;;;10.20;4.57;;;;;;;20.79;60.28;100923.53;5073102;28;20129;-81
2022/07/31 06:36:17;;;;;;;8.77;5.00;;;;;;;20.90;59.76;100920.69;5092493;28;20080;-83
2022/07/31 06:38:44;;;;;;;8.10;5.15;;;;;;;20.73;59.66;100926.81;5069121;28;20049;-85
2022/07/31 06:41:43;;;;;;;6.78;4.25;;;;;;;20.85;59.58;100924.78;5065721;28;20039;-81
2022/07/31 06:44:00;;;;;;;7.00;3.83;;;;;;;21.02;59.13;100915.94;5072838;28;20128;-83
2022/07/31 06:46:27;;;;;;;11.68;4.05;;;;;;;21.17;58.65;100918.97;5068437;28;20041;-86
2022/07/31 06:48:54;;;;;;;6.45;4.28;;;;;;;21.29;57.74;100920.41;5066438;28;20045;-84
2022/07/31 06:51:23;;;;;;;5.43;4.03;;;;;;;21.41;57.54;100919.22;5070869;28;20048;-82
2022/07/31 06:54:02;;;;;;;7.22;4.30;;;;;;;21.53;57.32;100922.50;5050236;28;20049;-83
2022/07/31 06:56:29;;;;;;;8.23;5.05;;;;;;;21.39;57.83;100917.66;5060701;28;20056;-84
2022/07/31 06:58:57;;;;;;;6.15;4.47;;;;;;;21.43;58.16;100914.56;5062177;28;20092;-83
2022/07/31 07:01:25;;;;;;;12.45;4.45;;;;;;;21.58;57.51;100914.00;5062740;28;20041;-84
2022/07/31 07:03:53;;;;;;;6.10;4.32;;;;;;;21.71;57.46;100914.44;5049963;28;20064;-84
2022/07/31 07:06:20;;;;;;;6.82;4.97;;;;;;;21.81;57.46;100923.22;5055555;28;20318;-85
2022/07/31 07:08:47;;;;;;;7.75;4.97;;;;;;;21.83;57.04;100917.72;5066736;28;20067;-84
2022/07/31 07:11:15;;;;;;;11.75;5.00;;;;;;;21.82;57.88;100927.59;5035576;28;20108;-84
2022/07/31 07:13:42;;;;;;;7.88;4.75;;;;;;;21.68;57.64;100920.94;5040491;28;20044;-83
2022/07/31 07:16:13;;;;;;;5.80;4.78;;;;;;;21.83;56.93;100925.75;5039749;28;20551;-84
2022/07/31 07:18:41;;;;;;;7.75;4.57;;;;;;;21.92;56.95;100914.09;5059433;28;20049;-84
2022/07/31 07:21:10;;;;;;;7.97;4.95;;;;;;;22.05;56.61;100908.31;5046137;28;20072;-82
2022/07/31 07:23:38;;;;;;;8.18;4.85;;;;;;;22.00;56.25;100908.78;5048976;28;20040;-82
2022/07/31 07:26:05;;;;;;;7.88;4.93;;;;;;;22.03;56.29;100907.66;5057699;28;20075;-83
2022/07/31 07:28:33;;;;;;;7.95;4.18;;;;;;;22.12;55.83;100910.25;5065403;28;20041;-82
2022/07/31 07:31:02;;;;;;;6.82;4.28;;;;;;;22.26;55.69;100913.34;5038988;28;20084;-82
2022/07/31 07:33:30;;;;;;;7.25;4.03;;;;;;;22.20;54.55;100906.78;5029902;28;20045;-84
2022/07/31 07:36:09;;;;;;;5.88;3.90;;;;;;;22.28;54.43;100914.00;5058243;28;20045;-84
2022/07/31 07:38:52;;;;;;;7.07;3.65;;;;;;;22.24;53.17;100900.06;5043955;28;20056;-83
2022/07/31 07:41:22;;;;;;;6.18;3.10;;;;;;;22.46;52.89;100901.34;5048189;28;20040;-84
2022/07/31 07:43:50;;;;;;;5.60;3.63;;;;;;;22.49;51.47;100899.19;5063379;28;20478;-83
2022/07/31 07:46:20;;;;;;;7.25;3.28;;;;;;;22.56;51.04;100891.34;5062753;28;20049;-83
2022/07/31 07:48:49;;;;;;;9.93;3.50;;;;;;;22.56;50.92;100896.72;5065068;28;20508;-83
2022/07/31 07:51:18;;;;;;;7.38;3.08;;;;;;;22.70;49.90;100885.38;5062626;28;20036;-82
2022/07/31 07:53:45;;;;;;;5.63;2.80;;;;;;;22.80;49.74;100882.53;5063836;28;20076;-84
2022/07/31 07:56:13;;;;;;;5.65;3.00;;;;;;;22.79;49.43;100888.09;5069456;28;20140;-83
2022/07/31 07:58:40;;;;;;;7.72;3.13;;;;;;;22.95;49.32;100878.22;5069159;28;20068;-84
2022/07/31 08:01:07;;;;;;;6.65;2.53;;;;;;;23.14;49.24;100879.78;5042989;28;20049;-83
2022/07/31 08:03:35;;;;;;;6.97;3.15;;;;;;;23.20;48.44;100881.81;5058720;28;20524;-81
2022/07/31 08:06:19;;;;;;;4.78;3.05;;;;;;;23.24;48.74;100879.63;5049948;28;20049;-81
2022/07/31 08:08:47;;;;;;;11.10;3.90;;;;;;;23.22;48.57;100885.16;5055088;28;20064;-84
2022/07/31 08:11:15;;;;;;;6.53;2.70;;;;;;;23.15;48.38;100876.09;5071734;28;20170;-81
2022/07/31 08:13:45;;;;;;;8.00;3.08;;;;;;;23.23;48.23;100876.09;5036305;28;20037;-80
2022/07/31 08:16:19;;;;;;;7.18;3.05;;;;;;;23.41;48.34;100875.09;5072311;28;20037;-82
2022/07/31 08:18:50;;;;;;;8.30;2.75;;;;;;;23.59;47.82;100880.28;5059314;28;20051;-82
2022/07/31 08:21:18;;;;;;;4.32;3.00;;;;;;;23.70;47.49;100880.00;5063620;28;20088;-84
2022/07/31 08:23:46;;;;;;;5.03;3.15;;;;;;;23.88;47.03;100877.13;5061521;28;20063;-82
2022/07/31 08:26:13;;;;;;;5.90;2.80;;;;;;;23.89;46.95;100878.78;5078688;28;20056;-83
2022/07/31 08:28:40;;;;;;;9.05;3.55;;;;;;;23.79;47.12;100880.84;5045593;28;20069;-82
2022/07/31 08:31:16;;;;;;;7.38;3.65;;;;;;;23.66;47.38;100879.50;5092396;28;20092;-82
2022/07/31 08:33:44;;;;;;;5.50;2.92;;;;;;;23.62;47.60;100886.19;5077491;28;20025;-82
2022/07/31 08:36:11;;;;;;;4.65;2.75;;;;;;;23.74;47.56;100887.56;5062991;28;20037;-84
2022/07/31 08:38:39;;;;;;;3.83;2.63;;;;;;;23.70;47.61;100890.75;5077079;28;20056;-84
2022/07/31 08:41:06;;;;;;;4.95;2.97;;;;;;;23.78;47.10;100893.44;5065686;28;20064;-82
2022/07/31 08:43:33;;;;;;;5.18;3.45;;;;;;;23.60;47.59;100885.53;5100273;28;20053;-84
2022/07/31 08:46:21;;;;;;;3.80;2.70;;;;;;;23.77;47.46;100886.34;5057146;28;20129;-83
2022/07/31 08:48:52;;;;;;;5.45;2.55;;;;;;;23.92;47.41;100883.84;5057528;28;20077;-84
2022/07/31 08:51:22;;;;;;;5.18;3.25;;;;;;;24.15;46.44;100881.25;5052180;28;20051;-83
2022/07/31 08:53:50;;;;;;;5.90;2.63;;;;;;;24.11;46.25;100871.84;5068630;28;20057;-84
2022/07/31 08:56:19;;;;;;;7.32;2.80;;;;;;;24.07;46.19;100868.66;5060781;28;20057;-85
2022/07/31 08:58:46;;;;;;;9.75;2.80;;;;;;;24.14;46.18;100875.03;5047245;28;20534;-83
2022/07/31 09:01:14;;;;;;;4.25;2.20;;;;;;;24.44;45.94;100876.13;5063524;28;20048;-83
2022/07/31 09:03:42;;;;;;;4.22;2.55;;;;;;;24.66;45.40;100858.34;5047510;28;20053;-83
2022/07/31 09:06:09;;;;;;;4.50;2.67;;;;;;;24.70;45.26;100864.22;5084671;28;20072;-84
2022/07/31 09:08:37;;;;;;;4.13;2.40;;;;;;;24.85;45.06;100859.75;5053486;28;20338;-85
2022/07/31 09:11:07;;;;;;;5.53;3.10;;;;;;;25.10;44.93;100862.34;5072907;28;20119;-82
2022/07/31 09:13:34;;;;;;;5.97;3.50;;;;;;;25.10;44.00;100857.78;5056646;28;20071;-82
2022/07/31 09:16:02;;;;;;;7.95;2.88;;;;;;;25.04;44.29;100857.63;5027765;28;20508;-83
2022/07/31 09:18:30;;;;;;;6.35;2.72;;;;;;;25.01;43.81;100853.44;5042008;28;20040;-83
2022/07/31 09:21:02;;;;;;;5.85;2.30;;;;;;;24.97;43.17;100847.56;5058791;28;20057;-84
2022/07/31 09:23:30;;;;;;;5.68;2.15;;;;;;;25.04;43.12;100853.09;5042315;28;20131;-85
2022/07/31 09:26:00;;;;;;;7.57;2.40;;;;;;;25.14;42.85;100845.63;5050561;28;20048;-84
2022/07/31 09:28:32;;;;;;;4.55;2.53;;;;;;;25.15;43.54;100844.59;5063257;28;20053;-83
2022/07/31 09:31:00;;;;;;;10.15;3.90;;;;;;;25.10;43.16;100848.88;5063359;28;20051;-84
2022/07/31 09:33:29;;;;;;;6.53;2.63;;;;;;;25.09;43.97;100841.81;5056251;28;20289;-84
2022/07/31 09:35:57;;;;;;;3.47;1.98;;;;;;;25.27;42.97;100841.50;5060615;28;20053;-85
2022/07/31 09:38:32;;;;;;;4.95;2.30;;;;;;;25.08;43.26;100840.97;5064171;28;20074;-83
2022/07/31 09:41:18;;;;;;;4.40;2.25;;;;;;;25.40;42.89;100836.34;5057642;28;20037;-82
2022/07/31 09:44:06;;;;;;;4.85;2.60;;;;;;;25.48;41.52;100834.38;5073986;28;20112;-83
2022/07/31 09:46:45;;;;;;;5.95;2.40;;;;;;;25.37;41.77;100825.91;5079628;28;20064;-82
2022/07/31 09:49:13;;;;;;;3.25;2.17;;;;;;;25.58;41.21;100841.38;5060619;28;20053;-82
2022/07/31 09:51:43;;;;;;;5.75;2.25;;;;;;;25.70;41.29;100829.97;5062452;28;20214;-82
2022/07/31 09:54:24;;;;;;;3.47;2.35;;;;;;;25.77;41.53;100834.66;5070466;28;20406;-84
2022/07/31 09:56:51;;;;;;;5.75;2.40;;;;;;;25.85;41.02;100835.41;5048475;28;20045;-85
2022/07/31 09:59:18;;;;;;;3.28;2.05;;;;;;;26.13;41.86;100826.69;5048271;28;20046;-84
2022/07/31 10:01:50;;;;;;;5.68;2.63;;;;;;;26.39;41.57;100824.31;5067216;28;20041;-83
2022/07/31 10:04:18;;;;;;;7.45;2.50;;;;;;;26.53;40.27;100828.03;5084182;28;20049;-85
2022/07/31 10:06:50;;;;;;;7.70;2.17;;;;;;;26.50;40.51;100828.41;5082838;28;20685;-85
2022/07/31 10:09:19;;;;;;;6.85;2.35;;;;;;;26.62;40.43;100829.59;5041122;28;20524;-83
2022/07/31 10:11:48;;;;;;;5.68;2.75;;;;;;;26.74;40.10;100827.22;5050847;28;20049;-83
2022/07/31 10:14:43;;;;;;;8.68;2.30;;;;;;;27.00;40.18;100818.56;5092556;28;20041;-82
2022/07/31 10:17:11;;;;;;;4.07;2.20;;;;;;;27.24;39.32;100820.91;5066626;28;21488;-82
2022/07/31 10:19:40;;;;;;;5.88;2.63;;;;;;;27.36;38.35;100826.59;5047166;28;20453;-83
2022/07/31 10:22:08;;;;;;;4.10;2.63;;;;;;;27.32;38.60;100822.63;5078105;28;20275;-83
2022/07/31 10:24:46;;;;;;;12.30;2.95;;;;;;;26.99;38.21;100820.44;5064059;28;20053;-83
2022/07/31 10:27:15;;;;;;;7.80;2.85;;;;;;;27.00;38.98;100816.69;5063066;28;20049;-82
2022/07/31 10:29:43;;;;;;;2.85;2.20;;;;;;;27.04;39.26;100819.03;5064679;28;20056;-83
2022/07/31 10:32:11;;;;;;;3.67;2.20;;;;;;;27.23;38.74;100800.31;5075127;28;20056;-82
2022/07/31 10:34:38;;;;;;;3.88;2.30;;;;;;;27.17;39.26;100811.91;5063329;28;20569;-82
2022/07/31 10:37:44;;;;;;;3.35;2.53;;;;;;;27.26;38.65;100807.19;5062414;28;20052;-82
2022/07/31 10:40:18;;;;;;;3.10;2.13;;;;;;;27.41;38.54;100809.81;5045890;28;20073;-84
2022/07/31 10:43:10;;;;;;;4.65;3.00;;;;;;;27.36;38.04;100799.56;5071741;28;20127;-83
2022/07/31 10:45:48;;;;;;;6.28;2.47;;;;;;;27.75;37.46;100804.47;5044727;28;20211;-85
2022/07/31 10:48:16;;;;;;;4.70;2.40;;;;;;;27.91;37.45;100802.47;5064344;28;20141;-84
2022/07/31 10:50:43;;;;;;;7.45;2.58;;;;;;;28.12;36.83;100804.25;5041763;28;20116;-84
2022/07/31 10:53:16;;;;;;;5.30;1.90;;;;;;;27.62;37.40;100796.25;5092078;28;20050;-82
2022/07/31 10:55:43;;;;;;;3.45;2.35;;;;;;;27.55;37.31;100799.91;5060776;28;20041;-82
2022/07/31 10:58:13;;;;;;;4.10;2.40;;;;;;;27.79;37.25;100796.81;5076063;28;20109;-82
2022/07/31 11:00:40;;;;;;;6.68;2.10;;;;;;;28.15;36.78;100785.75;5067973;28;20045;-83
2022/07/31 11:03:16;;;;;;;6.53;2.63;;;;;;;28.28;35.86;100784.97;5079323;28;20079;-81
2022/07/31 11:05:58;;;;;;;5.10;2.50;;;;;;;28.18;36.47;100788.03;5077263;22;20136;-54
2022/07/31 11:08:43;;;;;;;11.52;2.45;;;;;;;28.65;36.05;100785.53;5048355;28;20057;-51
2022/07/31 11:11:11;;;;;;;3.92;2.67;;;;;;;28.82;35.26;100775.09;5051582;28;20052;-57
2022/07/31 11:13:45;;;;;;;7.53;2.10;;;;;;;28.79;35.83;100786.38;5055291;28;20438;-56
2022/07/31 11:16:12;;;;;;;6.27;2.37;;;;;;;29.07;34.75;100783.50;5050494;28;20037;-57
2022/07/31 11:18:40;;;;;;;6.85;2.28;;;;;;;29.41;34.50;100785.19;5051715;28;20402;-55
2022/07/31 11:21:08;;;;;;;7.97;2.78;;;;;;;28.98;34.92;100778.28;5036838;28;20484;-54
2022/07/31 11:23:55;;;;;;;4.03;2.53;;;;;;;29.26;34.67;100783.50;5051717;28;20535;-56
2022/07/31 11:26:30;;;;;;;6.22;2.88;;;;;;;29.11;34.78;100782.88;5038282;28;20048;-54
2022/07/31 11:29:10;;;;;;;5.68;2.28;;;;;;;29.08;35.01;100782.47;5052436;28;20052;-54
2022/07/31 11:32:15;;;;;;;4.82;2.88;;;;;;;29.31;35.35;100779.34;5052375;28;20052;-56
2022/07/31 11:34:52;;;;;;;3.05;2.67;;;;;;;29.71;34.54;100780.16;5035251;28;20147;-53
2022/07/31 11:37:29;;;;;;;3.20;2.35;;;;;;;30.07;33.90;100773.34;5036230;28;20049;-55